Stonesfield, United Kingdom
Current Conditions -  °F | °C
As of 3:20 PM on Thursday 30 Oct 2014 (Local Time) from EGTK Reporting Station
Few Clouds Few Clouds  
Wind Chill: 63°   Ceiling: Unl
Heat Index: 63°   Visibility: 6mi
Dew Point: 63°   Wind: 10mph
Humidity: 100%   Direction: 180°S
Pressure: 30.03"   Gusts: NA
Location:  51.85°N, 1.43°W
Report Text: EGTK 301520Z 18009KT 9999 FEW038 17/17 Q1017
Loading
Personal Weather Stations






























Interactive Weather Map
Tropical Storm Tracking
New forecast layout! Learn more

10-Day Weather Forecast

Advertisements
Track Severe Weather on mobile